SR3WXA Weather Reports


Display with metric or nautical units.
time (UTC)temp
F
wind
direction
speed
MPH
gust
MPH
rain 1hr
in
rain 24hr
in
rain mn
in
humidity
%
barometer
mb
20210623135019 72 274 1.0 4.0 0.00 1.15 0.13 65 1018.5
20210623134934 72 274 1.0 4.0 0.00 1.15 0.13 65 1018.5
20210623134538 72 272 1.0 4.0 0.00 1.19 0.13 66 1018.5
20210623134435 72 272 1.0 4.0 0.00 1.19 0.13 66 1018.5
20210623134007 72 272 1.0 4.0 0.00 1.22 0.13 67 1018.6
20210623133934 72 272 1.0 4.0 0.00 1.22 0.13 67 1018.6
20210623133612 72 0 0.0 6.0 0.00 1.26 0.13 68 1018.6
20210623133434 72 0 0.0 6.0 0.00 1.26 0.13 68 1018.6
20210623133027 72 264 2.0 6.0 0.00 1.30 0.13 69 1018.7
20210623132934 72 264 2.0 6.0 0.00 1.30 0.13 69 1018.7
20210623132154 71 268 1.0 4.0 0.00 1.39 0.13 70 1018.5
20210623131655 71 268 1.0 4.0 0.00 1.43 0.13 70 1018.5
20210623131155 71 268 2.0 7.0 0.00 1.48 0.13 70 1018.5
20210623130654 71 270 2.0 7.0 0.00 1.53 0.13 71 1018.5
20210623130248 71 305 1.0 4.0 0.00 1.58 0.13 70 1018.5
20210623130154 71 305 1.0 4.0 0.00 1.58 0.13 70 1018.5
20210623125739 71 279 1.0 4.0 0.00 1.63 0.13 70 1018.5
20210623125654 71 279 1.0 4.0 0.00 1.63 0.13 70 1018.5
20210623125155 71 279 1.0 4.0 0.00 1.68 0.13 69 1018.6
20210623124654 71 0 0.0 4.0 0.00 1.74 0.13 72 1018.7
20210623124155 71 0 0.0 4.0 0.00 1.80 0.13 73 1018.7
20210623123734 71 276 1.0 4.0 0.00 1.87 0.13 72 1018.7
20210623123654 71 276 1.0 4.0 0.00 1.87 0.13 72 1018.7
20210623123232 71 276 1.0 6.0 0.00 1.95 0.13 71 1018.6
20210623123154 71 276 1.0 6.0 0.00 1.95 0.13 71 1018.6
20210623122654 71 274 1.0 6.0 0.00 2.02 0.13 69 1018.5
20210623122231 71 284 2.0 7.0 0.00 2.10 0.13 67 1018.4
20210623122154 71 284 2.0 7.0 0.00 2.10 0.13 67 1018.4
20210623121654 72 282 2.0 7.0 0.00 2.22 0.13 65 1018.5
20210623121229 72 315 1.0 6.0 0.00 2.34 0.13 65 1018.5
20210623121154 72 315 1.0 6.0 0.00 2.34 0.13 65 1018.5
20210623120654 72 319 2.0 6.0 0.00 2.34 0.13 64 1018.4
20210623115619 72 274 2.0 4.0 0.00 2.34 0.13 63 1018.6
20210623115544 72 274 2.0 4.0 0.00 2.34 0.13 63 1018.6
20210623115117 73 279 2.0 7.0 0.00 2.34 0.13 62 1018.5
20210623115044 73 279 2.0 7.0 0.00 2.34 0.13 62 1018.5
20210623114544 73 0 0.0 8.0 0.00 2.34 0.13 63 1018.4
20210623114044 73 253 6.0 8.0 0.00 2.34 0.13 61 1018.4
20210623113544 73 294 2.0 6.0 0.00 2.34 0.13 62 1018.4
20210623113119 73 267 2.0 9.0 0.00 2.34 0.13 62 1018.3
20210623113044 73 267 2.0 9.0 0.00 2.34 0.13 62 1018.3
20210623112544 73 330 3.0 10.0 0.00 2.34 0.13 62 1018.3
20210623112122 73 0 0.0 10.0 0.00 2.34 0.13 62 1018.3
20210623112044 73 0 0.0 10.0 0.00 2.34 0.13 62 1018.3
20210623111544 73 306 1.0 6.0 0.00 2.34 0.13 61 1018.3
20210623110421 72 351 1.0 10.0 0.00 2.34 0.13 62 1018.3
20210623110331 72 351 1.0 10.0 0.00 2.34 0.13 62 1018.3
20210623105903 73 313 4.0 10.0 0.01 2.34 0.13 61 1018.4
20210623105831 73 313 4.0 10.0 0.01 2.34 0.13 61 1018.4
20210623105115 73 316 2.0 8.0 0.01 2.34 0.13 61 1018.5
20210623105033 73 316 2.0 8.0 0.01 2.34 0.13 61 1018.5
20210623104533 73 339 2.0 8.0 0.01 2.34 0.13 61 1018.6
20210623104033 72 0 0.0 7.0 0.01 2.34 0.13 61 1018.5
20210623103615 72 339 2.0 6.0 0.01 2.34 0.13 63 1018.6
20210623103533 72 339 2.0 6.0 0.01 2.34 0.13 63 1018.6
20210623102530 72 293 3.0 9.0 0.01 2.34 0.13 64 1018.6
20210623102111 71 270 2.0 9.0 0.01 2.34 0.13 63 1018.7
20210623102032 71 270 2.0 9.0 0.01 2.34 0.13 63 1018.7
20210623101530 71 315 3.0 9.0 0.01 2.34 0.13 64 1018.7
20210623101124 71 305 3.0 9.0 0.01 2.34 0.13 64 1018.6
20210623101030 71 305 3.0 9.0 0.01 2.34 0.13 64 1018.6
20210623100617 71 312 2.0 9.0 0.01 2.34 0.13 64 1018.6
20210623100531 71 312 2.0 9.0 0.01 2.34 0.13 64 1018.6
20210623100127 71 248 2.0 8.0 0.01 2.34 0.13 65 1018.6
20210623100030 71 248 2.0 8.0 0.01 2.34 0.13 65 1018.6
20210623095530 70 311 3.0 9.0 0.00 2.33 0.12 66 1018.6
20210623095030 70 292 4.0 9.0 0.00 2.33 0.12 66 1018.5
20210623094127 71 289 2.0 10.0 0.00 2.33 0.12 65 1018.5
20210623094030 71 289 2.0 10.0 0.00 2.33 0.12 65 1018.5
20210623093530 71 294 4.0 10.0 0.00 2.33 0.12 65 1018.6
20210623093127 71 307 2.0 8.0 0.00 2.33 0.12 64 1018.6
20210623093030 71 307 2.0 8.0 0.00 2.33 0.12 64 1018.6
20210623092530 71 321 4.0 8.0 0.00 2.33 0.12 65 1018.7
20210623092030 71 305 2.0 9.0 0.00 2.33 0.12 64 1018.5
20210623091530 71 340 4.0 9.0 0.00 2.33 0.12 64 1018.6
20210623091104 70 336 2.0 10.0 0.00 2.33 0.12 65 1018.5
20210623090912 70 336 2.0 10.0 0.00 2.33 0.12 65 1018.5
20210623090412 70 322 5.0 10.0 0.00 2.33 0.12 65 1018.5
20210623085944 70 281 3.0 9.0 0.00 2.33 0.12 67 1018.4
20210623085912 70 281 3.0 9.0 0.00 2.33 0.12 67 1018.4
20210623085514 70 282 1.0 10.0 0.00 2.33 0.12 66 1018.5
20210623085444 70 282 1.0 10.0 0.00 2.33 0.12 66 1018.5
20210623085412 70 282 1.0 10.0 0.00 2.33 0.12 66 1018.5
20210623084912 70 327 4.0 10.0 0.00 2.33 0.12 66 1018.4
20210623084506 69 304 2.0 9.0 0.00 2.33 0.12 66 1018.5
20210623084412 69 304 2.0 9.0 0.00 2.33 0.12 66 1018.5
20210623083913 69 339 2.0 9.0 0.00 2.33 0.12 67 1018.5
20210623083443 69 0 0.0 11.0 0.00 2.33 0.12 67 1018.6
20210623083412 69 0 0.0 11.0 0.00 2.33 0.12 67 1018.6
20210623083007 69 310 1.0 11.0 0.01 2.33 0.12 68 1018.6
20210623082912 69 310 1.0 11.0 0.01 2.33 0.12 68 1018.6
20210623082000 68 359 6.0 12.0 0.01 2.33 0.12 70 1018.6
20210623081455 67 323 4.0 12.0 0.01 2.33 0.12 70 1018.6
20210623081127 67 308 4.0 11.0 0.01 2.33 0.12 70 1018.4
20210623080955 67 308 4.0 11.0 0.01 2.33 0.12 70 1018.4
20210623080613 67 291 3.0 11.0 0.01 2.33 0.12 71 1018.4
20210623080455 67 291 3.0 11.0 0.01 2.33 0.12 71 1018.4
20210623080026 67 318 5.0 11.0 0.01 2.33 0.12 70 1018.4
20210623075955 67 318 5.0 11.0 0.01 2.33 0.12 70 1018.4
20210623075455 67 322 4.0 11.0 0.01 2.33 0.12 72 1018.4
20210623074955 67 315 2.0 12.0 0.01 2.33 0.12 73 1018.5
20210623074455 66 311 5.0 12.0 0.01 2.33 0.12 73 1018.4
20210623073955 66 269 8.0 12.0 0.01 2.33 0.12 72 1018.4
20210623073457 67 275 4.0 9.0 0.01 2.33 0.12 73 1018.5
20210623072956 66 332 2.0 10.0 0.00 2.32 0.11 74 1018.5
20210623072455 66 325 4.0 11.0 0.00 2.32 0.11 74 1018.5
20210623071955 65 284 7.0 11.0 0.00 2.32 0.11 74 1018.4
20210623071555 65 316 4.0 10.0 0.00 2.32 0.11 75 1018.4
20210623071455 65 316 4.0 10.0 0.00 2.32 0.11 75 1018.4
20210623070955 65 0 0.0 8.0 0.00 2.32 0.11 77 1018.3
20210623070458 66 278 1.0 6.0 0.00 2.32 0.11 77 1018.3
20210623064629 65 327 2.0 11.0 0.01 2.32 0.11 75 1018.1
20210623064131 65 5 6.0 12.0 0.01 2.32 0.11 76 1018.1
20210623063629 64 331 5.0 12.0 0.01 2.32 0.11 78 1018.1
20210623063130 64 331 1.0 8.0 0.01 2.32 0.11 81 1018.1
20210623062631 64 318 2.0 8.0 0.01 2.32 0.11 81 1018.1
20210623062130 64 0 0.0 11.0 0.01 2.32 0.11 81 1018.1
20210623061702 63 320 3.0 11.0 0.01 2.32 0.11 82 1018.0
20210623061629 63 320 3.0 11.0 0.01 2.32 0.11 82 1018.0
20210623061129 63 328 4.0 9.0 0.01 2.32 0.11 81 1017.9
20210623061059 63 309 3.0 9.0 0.01 2.32 0.11 81 1017.9
20210623060629 63 309 3.0 9.0 0.01 2.32 0.11 81 1017.9
20210623060228 63 331 3.0 9.0 0.01 2.32 0.11 81 1017.9
20210623060133 63 331 3.0 9.0 0.01 2.32 0.11 81 1017.9
20210623055635 63 327 1.0 9.0 0.01 2.31 0.10 81 1017.9
20210623055545 63 327 1.0 9.0 0.01 2.31 0.10 81 1017.9
20210623055045 63 309 1.0 9.0 0.01 2.31 0.10 82 1017.8
20210623054545 63 310 3.0 9.0 0.01 2.31 0.10 83 1017.8
20210623054045 62 287 3.0 7.0 0.01 2.31 0.10 82 1017.7
20210623053548 62 0 0.0 9.0 0.01 2.31 0.10 83 1017.7
20210623053045 62 342 2.0 9.0 0.01 2.31 0.10 83 1017.7
20210623052546 62 0 0.0 10.0 0.01 2.31 0.10 84 1017.6
20210623052045 62 333 3.0 10.0 0.01 2.31 0.10 83 1017.6
20210623051545 62 322 2.0 12.0 0.01 2.31 0.10 83 1017.5
20210623051046 62 329 5.0 12.0 0.01 2.31 0.10 83 1017.4
20210623050424 62 0 0.0 9.0 0.01 2.31 0.10 84 1017.4
20210623045924 62 324 4.0 9.0 0.01 2.31 0.10 83 1017.4
20210623045459 62 335 3.0 9.0 0.00 2.30 0.09 84 1017.3
20210623045422 62 335 3.0 9.0 0.00 2.30 0.09 84 1017.3
20210623044923 62 334 3.0 9.0 0.00 2.30 0.09 85 1017.2
20210623044458 62 347 2.0 9.0 0.00 2.30 0.09 85 1017.2
20210623044422 62 347 2.0 9.0 0.00 2.30 0.09 85 1017.2
20210623043926 62 321 4.0 9.0 0.00 2.30 0.09 85 1017.2
20210623042922 62 328 2.0 11.0 0.01 2.30 0.09 86 1017.0
20210623042423 61 343 3.0 10.0 0.01 2.30 0.09 87 1016.9
20210623041925 61 322 2.0 6.0 0.01 2.30 0.09 88 1016.9
20210623041058 61 324 1.0 6.0 0.01 2.30 0.09 89 1016.9
20210623040557 60 342 1.0 6.0 0.01 2.30 0.09 89 1016.8
20210623040058 60 0 0.0 5.0 0.01 2.30 0.09 89 1016.8
20210623035557 60 0 0.0 5.0 0.01 2.30 0.09 89 1016.8
20210623035057 60 0 0.0 3.0 0.01 2.30 0.09 88 1016.8
20210623034558 60 0 0.0 3.0 0.01 2.30 0.09 88 1016.8
20210623034058 60 0 0.0 3.0 0.02 2.30 0.09 88 1016.8
20210623033548 60 0 0.0 4.0 0.02 2.30 0.09 87 1016.7
20210623033514 60 0 0.0 4.0 0.02 2.30 0.09 87 1016.7
20210623032515 60 0 0.0 5.0 0.01 2.29 0.08 87 1016.3
20210623032014 60 0 0.0 5.0 0.01 2.29 0.08 87 1016.2
20210623031514 60 0 0.0 5.0 0.01 2.29 0.08 86 1016.0
20210623031014 60 0 0.0 6.0 0.01 2.29 0.08 86 1016.0
20210623025054 60 332 1.0 9.0 0.01 2.29 0.08 84 1015.8
20210623024554 60 295 2.0 10.0 0.02 2.29 0.08 84 1015.9
20210623024054 61 315 4.0 12.0 0.01 2.28 0.07 84 1015.9
20210623023554 60 322 3.0 12.0 0.01 2.28 0.07 83 1015.8
20210623023054 61 306 4.0 11.0 0.01 2.28 0.07 84 1015.9
20210623022630 61 293 1.0 9.0 0.01 2.28 0.07 84 1015.9
20210623022555 61 293 1.0 9.0 0.01 2.28 0.07 84 1015.9
20210623022054 61 307 3.0 10.0 0.01 2.28 0.07 84 1015.8
20210623021554 61 339 2.0 10.0 0.01 2.28 0.07 84 1015.8
20210623021054 61 341 1.0 9.0 0.01 2.28 0.07 84 1015.5
20210623020554 61 338 2.0 9.0 0.02 2.28 0.07 84 1015.6
20210623020127 61 325 4.0 9.0 0.02 2.28 0.07 85 1015.7
20210623020054 61 325 4.0 9.0 0.02 2.28 0.07 85 1015.7
20210623015626 61 314 3.0 8.0 0.02 2.28 0.07 85 1015.7
20210623015554 61 314 3.0 8.0 0.02 2.28 0.07 85 1015.7
20210623014804 61 332 3.0 10.0 0.02 2.28 0.07 86 1015.6
20210623014721 61 332 3.0 10.0 0.02 2.28 0.07 86 1015.6
20210623014220 61 309 2.0 10.0 0.01 2.27 0.06 87 1015.6
20210623013720 61 320 2.0 9.0 0.01 2.27 0.06 88 1015.6
20210623013220 61 317 1.0 11.0 0.01 2.27 0.06 88 1015.7
20210623012720 61 334 1.0 11.0 0.01 2.27 0.06 88 1015.7
20210623012351 62 312 5.0 10.0 0.02 2.27 0.06 89 1015.8
20210623012310 62 312 5.0 10.0 0.02 2.27 0.06 89 1015.8
20210623012221 62 312 5.0 10.0 0.02 2.27 0.06 89 1015.8
20210623011800 62 302 3.0 9.0 0.02 2.27 0.06 89 1015.7
20210623011720 62 302 3.0 9.0 0.02 2.27 0.06 89 1015.7
20210623010243 62 315 1.0 11.0 0.01 2.26 0.05 91 1015.7
20210623010053 62 315 1.0 11.0 0.01 2.26 0.05 91 1015.7
20210623005626 61 320 3.0 9.0 0.01 2.26 0.05 91 1015.6
20210623005553 61 320 3.0 9.0 0.01 2.26 0.05 91 1015.6
20210623005053 61 302 2.0 9.0 0.02 2.26 0.05 92 1015.6
20210623004627 62 330 3.0 9.0 0.02 2.26 0.05 92 1015.5
20210623004553 62 330 3.0 9.0 0.02 2.26 0.05 92 1015.5
20210623004127 62 316 1.0 9.0 0.02 2.26 0.05 93 1015.4
20210623004053 62 316 1.0 9.0 0.02 2.26 0.05 93 1015.4
20210623003144 62 320 1.0 6.0 0.02 2.26 0.05 93 1015.5
20210623003102 62 320 1.0 6.0 0.02 2.26 0.05 93 1015.5
20210623002602 62 327 2.0 6.0 0.02 2.26 0.05 93 1015.5
20210623002102 62 292 2.0 6.0 0.02 2.26 0.05 93 1015.5
20210623001645 62 303 1.0 6.0 0.02 2.25 0.04 93 1015.5
20210623001602 62 303 1.0 6.0 0.02 2.25 0.04 93 1015.5
20210623001102 62 312 2.0 8.0 0.02 2.25 0.04 93 1015.4
20210623000602 62 309 2.0 8.0 0.02 2.25 0.04 93 1015.4
20210623000102 62 0 0.0 8.0 0.02 2.25 0.04 93 1015.4
20210622235602 62 308 1.0 8.0 0.02 2.25 0.04 93 1015.3
20210622235102 62 305 1.0 8.0 0.01 2.24 0.03 93 1015.2
20210622234640 62 296 1.0 4.0 0.02 2.24 0.03 93 1015.2
20210622234602 62 296 1.0 4.0 0.02 2.24 0.03 93 1015.2
20210622233942 62 0 0.0 9.0 0.02 2.24 0.03 93 1015.2
20210622233858 62 0 0.0 9.0 0.02 2.24 0.03 93 1015.2
20210622233358 62 291 1.0 10.0 0.02 2.24 0.03 92 1015.2
20210622232858 63 294 3.0 10.0 0.02 2.24 0.03 92 1015.2
20210622232358 63 311 4.0 10.0 0.02 2.24 0.03 92 1015.2
20210622231858 63 297 5.0 10.0 0.03 2.24 0.03 92 1015.3
20210622231358 63 309 4.0 9.0 0.02 2.23 0.02 92 1015.4
20210622230858 63 0 0.0 9.0 0.02 2.23 0.02 92 1015.4
20210622230524 63 292 2.0 9.0 0.02 2.23 0.02 92 1015.4
20210622230358 63 292 2.0 9.0 0.02 2.23 0.02 92 1015.4
20210622225858 63 296 2.0 9.0 0.02 2.23 0.02 92 1015.4
20210622225431 63 324 1.0 9.0 0.03 2.23 0.02 92 1015.4
20210622225358 63 324 1.0 9.0 0.03 2.23 0.02 92 1015.4
20210622224541 63 301 4.0 12.0 0.02 2.22 0.01 92 1015.3
20210622224502 63 301 4.0 12.0 0.02 2.22 0.01 92 1015.3
20210622224002 63 296 5.0 9.0 0.02 2.22 0.01 92 1015.3
20210622223535 63 295 4.0 10.0 0.02 2.22 0.01 92 1015.3
20210622223502 63 295 4.0 10.0 0.02 2.22 0.01 92 1015.3
20210622223002 63 288 3.0 11.0 0.03 2.22 0.01 92 1015.3
20210622222533 64 310 1.0 11.0 0.03 2.22 0.01 92 1015.2
20210622222502 64 310 1.0 11.0 0.03 2.22 0.01 92 1015.2
20210622222033 64 303 1.0 9.0 0.03 2.22 0.01 92 1015.3
20210622222002 64 303 1.0 9.0 0.03 2.22 0.01 92 1015.3
20210622221535 64 285 2.0 11.0 0.03 2.21 0.00 92 1015.2
20210622221502 64 285 2.0 11.0 0.03 2.21 0.00 92 1015.2
20210622221037 64 288 4.0 11.0 0.03 2.21 0.00 92 1015.1
20210622221002 64 288 4.0 11.0 0.03 2.21 0.00 92 1015.1
20210622220502 64 293 4.0 9.0 0.03 2.21 0.00 92 1015.1
20210622215727 64 283 2.0 9.0 0.04 2.21 2.25 93 1015.1
20210622215228 64 321 2.0 9.0 0.03 2.20 2.24 93 1015.0
20210622214759 64 302 1.0 9.0 0.03 2.20 2.24 93 1014.8
20210622214727 64 302 1.0 9.0 0.03 2.20 2.24 93 1014.8
20210622214227 64 324 2.0 13.0 0.04 2.20 2.24 93 1014.8
20210622213727 64 303 1.0 13.0 0.04 2.20 2.24 93 1014.7
20210622213303 64 337 3.0 8.0 0.03 2.19 2.23 94 1014.7
20210622213227 64 337 3.0 8.0 0.03 2.19 2.23 94 1014.7
20210622212727 64 303 3.0 7.0 0.03 2.19 2.23 94 1014.7
20210622212300 64 0 0.0 8.0 0.04 2.19 2.23 94 1014.6
20210622212227 64 0 0.0 8.0 0.04 2.19 2.23 94 1014.6
20210622211800 64 319 3.0 8.0 0.04 2.19 2.23 94 1014.6
20210622211727 64 319 3.0 8.0 0.04 2.19 2.23 94 1014.6
20210622210922 64 333 2.0 8.0 0.04 2.18 2.22 94 1014.5
20210622210457 64 328 3.0 8.0 0.04 2.18 2.22 94 1014.4
20210622210422 64 328 3.0 8.0 0.04 2.18 2.22 94 1014.4
20210622205922 64 299 2.0 8.0 0.04 2.18 2.22 93 1014.4
20210622205423 64 321 4.0 9.0 0.04 2.17 2.21 93 1014.4
20210622205012 64 302 2.0 12.0 0.04 2.17 2.21 93 1014.4
20210622204922 64 302 2.0 12.0 0.04 2.17 2.21 93 1014.4
20210622204422 64 300 6.0 12.0 0.04 2.17 2.21 93 1014.3
20210622203922 65 298 4.0 11.0 0.04 2.16 2.20 93 1014.2
20210622203422 65 309 3.0 10.0 0.04 2.16 2.20 94 1014.2
20210622202922 65 304 2.0 9.0 0.04 2.16 2.20 94 1014.2
20210622202453 65 283 3.0 9.0 0.05 2.16 2.20 94 1014.0
20210622202422 65 283 3.0 9.0 0.05 2.16 2.20 94 1014.0
20210622201702 65 297 3.0 11.0 0.05 2.15 2.19 94 1014.0
20210622201626 65 297 3.0 11.0 0.05 2.15 2.19 94 1014.0
20210622201126 65 311 5.0 11.0 0.05 2.15 2.19 94 1014.0
20210622200626 65 336 2.0 9.0 0.04 2.14 2.18 93 1014.0
20210622200204 65 294 2.0 9.0 0.05 2.14 2.18 93 1013.9
20210622200126 65 294 2.0 9.0 0.05 2.14 2.18 93 1013.9
20210622195626 65 281 3.0 8.0 0.06 2.14 2.18 93 1013.7
20210622195250 65 290 3.0 8.0 0.05 2.13 2.17 94 1013.6
20210622195126 65 290 3.0 8.0 0.05 2.13 2.17 94 1013.6
20210622194126 65 284 4.0 12.0 0.06 2.13 2.17 94 1013.4
20210622193626 65 288 4.0 12.0 0.06 2.12 2.16 94 1013.4
20210622193220 65 294 5.0 12.0 0.06 2.12 2.16 94 1013.2
20210622193126 65 294 5.0 12.0 0.06 2.12 2.16 94 1013.2
20210622192626 65 294 3.0 12.0 0.06 2.11 2.15 94 1013.2
20210622192250 65 289 6.0 12.0 0.07 2.11 2.15 94 1013.2
20210622192126 65 289 6.0 12.0 0.07 2.11 2.15 94 1013.2
20210622191627 65 298 4.0 15.0 0.07 2.11 2.15 94 1013.1
20210622191126 65 279 8.0 15.0 0.07 2.10 2.14 94 1013.0
20210622190626 66 290 7.0 14.0 0.08 2.10 2.14 94 1013.1
20210622190126 66 294 6.0 11.0 0.07 2.09 2.13 94 1013.1
20210622185446 66 287 5.0 12.0 0.07 2.08 2.12 94 1013.0
20210622185016 66 293 4.0 11.0 0.08 2.08 2.12 94 1012.9
20210622184945 66 293 4.0 11.0 0.08 2.08 2.12 94 1012.9
20210622184445 66 294 4.0 13.0 0.09 2.08 2.12 94 1012.9
20210622183945 66 292 5.0 13.0 0.09 2.07 2.11 95 1012.8
20210622183445 66 289 7.0 14.0 0.09 2.06 2.10 95 1012.7
20210622182945 66 294 6.0 14.0 0.10 2.06 2.10 95 1012.7
20210622182529 67 301 3.0 14.0 0.09 2.05 2.09 95 1012.6
20210622182445 67 301 3.0 14.0 0.09 2.05 2.09 95 1012.6
20210622181945 67 283 7.0 14.0 0.09 2.04 2.08 95 1012.6
20210622181446 67 282 3.0 9.0 0.10 2.04 2.08 95 1012.5
20210622181024 67 299 1.0 9.0 0.10 2.03 2.07 95 1012.3
20210622180945 67 299 1.0 9.0 0.10 2.03 2.07 95 1012.3
20210622180447 67 293 3.0 11.0 0.10 2.02 2.06 95 1012.3
20210622180040 67 287 3.0 11.0 0.11 2.02 2.06 95 1012.3
20210622175945 67 287 3.0 11.0 0.11 2.02 2.06 95 1012.3
20210622175445 67 293 3.0 10.0 0.11 2.01 2.05 94 1012.3
20210622174946 67 306 4.0 10.0 0.11 2.00 2.04 94 1012.3
20210622174053 67 279 5.0 9.0 0.11 1.98 2.02 94 1012.3
20210622173629 67 277 3.0 8.0 0.12 1.98 2.02 94 1012.2
20210622173553 67 277 3.0 8.0 0.12 1.98 2.02 94 1012.2
20210622173053 67 289 2.0 8.0 0.11 1.97 2.01 94 1012.2
20210622172553 67 286 4.0 8.0 0.12 1.96 2.00 94 1012.1
20210622172053 67 277 2.0 7.0 0.11 1.95 1.99 94 1012.1
20210622171510 67 295 3.0 8.0 0.12 1.94 1.98 94 1012.2
20210622171010 67 296 1.0 9.0 0.12 1.93 1.97 94 1012.2
20210622170544 67 287 3.0 9.0 0.12 1.92 1.96 94 1012.1
20210622170510 67 287 3.0 9.0 0.12 1.92 1.96 94 1012.1
20210622170044 67 292 6.0 9.0 0.12 1.91 1.95 95 1012.1
20210622170010 67 292 6.0 9.0 0.12 1.91 1.95 95 1012.1
20210622165546 67 286 2.0 8.0 0.12 1.90 1.94 95 1012.1
20210622165511 67 286 2.0 8.0 0.12 1.90 1.94 95 1012.1
20210622165010 67 306 2.0 8.0 0.12 1.89 1.93 95 1012.0
20210622164542 67 296 1.0 8.0 0.12 1.88 1.92 95 1012.0
20210622164510 67 296 1.0 8.0 0.12 1.88 1.92 95 1012.0
20210622164044 67 296 2.0 8.0 0.13 1.87 1.91 95 1012.0
20210622164010 67 296 2.0 8.0 0.13 1.87 1.91 95 1012.0
20210622163540 68 291 3.0 9.0 0.13 1.86 1.90 95 1012.0
20210622163510 68 291 3.0 9.0 0.13 1.86 1.90 95 1012.0
20210622163010 68 301 2.0 9.0 0.14 1.86 1.90 96 1011.9
20210622162509 68 294 3.0 9.0 0.14 1.84 1.88 96 1011.9
20210622162041 68 306 3.0 9.0 0.15 1.84 1.88 96 1011.8
20210622162009 68 306 3.0 9.0 0.15 1.84 1.88 96 1011.8
20210622161510 68 294 2.0 9.0 0.14 1.82 1.86 96 1011.8
20210622161041 68 285 3.0 12.0 0.15 1.81 1.85 96 1011.8
20210622161010 68 285 3.0 12.0 0.15 1.81 1.85 96 1011.8
20210622160510 68 314 3.0 12.0 0.15 1.80 1.84 96 1011.8
20210622160010 68 309 2.0 10.0 0.16 1.79 1.83 96 1011.7
20210622155509 68 274 5.0 13.0 0.17 1.78 1.82 96 1011.5
20210622155010 68 293 4.0 13.0 0.17 1.77 1.81 97 1011.3
20210622154609 68 292 1.0 14.0 0.18 1.76 1.80 97 1011.4
20210622154510 68 292 1.0 14.0 0.18 1.76 1.80 97 1011.4
20210622154047 67 293 6.0 14.0 0.18 1.74 1.78 97 1011.5
20210622154010 67 293 6.0 14.0 0.18 1.74 1.78 97 1011.5
20210622153544 67 299 4.0 10.0 0.18 1.73 1.77 97 1011.5
20210622153510 67 299 4.0 10.0 0.18 1.73 1.77 97 1011.5
20210622153010 67 298 2.0 12.0 0.19 1.72 1.76 97 1011.5
20210622152543 67 307 4.0 12.0 0.19 1.70 1.74 97 1011.5
20210622152509 67 307 4.0 12.0 0.19 1.70 1.74 97 1011.5
20210622151639 67 290 7.0 13.0 0.22 1.69 1.72 97 1011.4
20210622151239 68 285 5.0 11.0 0.22 1.67 1.70 97 1011.6
20210622150639 68 296 1.0 8.0 0.22 1.65 1.68 97 1011.5
20210622150212 68 294 2.0 8.0 0.24 1.64 1.67 97 1011.5
20210622150139 68 294 2.0 8.0 0.24 1.64 1.67 97 1011.5
20210622145639 68 291 3.0 8.0 0.25 1.62 1.65 97 1011.6
20210622145219 68 0 0.0 7.0 0.27 1.61 1.64 97 1011.5
20210622145139 68 0 0.0 7.0 0.27 1.61 1.64 97 1011.5
20210622144639 67 286 3.0 10.0 0.28 1.59 1.62 97 1011.5
20210622144139 67 287 4.0 13.0 0.29 1.57 1.60 97 1011.3
20210622143639 67 296 6.0 13.0 0.30 1.55 1.58 97 1011.2
20210622143139 67 285 3.0 12.0 0.31 1.53 1.56 97 1011.1
20210622142640 67 292 4.0 12.0 0.32 1.51 1.54 97 1011.0
20210622142012 67 269 4.0 11.0 0.35 1.49 1.52 97 1011.1
20210622141922 67 269 4.0 11.0 0.35 1.49 1.52 97 1011.1
20210622141555 66 272 3.0 10.0 0.36 1.46 1.49 97 1011.0
20210622141422 66 272 3.0 10.0 0.36 1.46 1.49 97 1011.0
20210622141056 66 278 6.0 12.0 0.38 1.44 1.47 97 1010.9
20210622140922 66 278 6.0 12.0 0.38 1.44 1.47 97 1010.9
20210622140006 66 295 5.0 10.0 0.41 1.39 1.42 97 1011.1
20210622135922 66 295 5.0 10.0 0.41 1.39 1.42 97 1011.1
20210622135501 66 288 4.0 10.0 0.42 1.36 1.39 97 1011.1
20210622135422 66 288 4.0 10.0 0.42 1.36 1.39 97 1011.1
20210622135250 66 288 5.0 10.0 0.44 1.33 1.36 97 1011.1